Time;durP1;ratioP1;P1;durP2;ratioP2;P2;SDS_P1;SDS_P2;PMS_P1;PMS_P2;Temp;Humidity;BMP_temperature;BMP_pressure;BME280_temperature;BME280_humidity;BME280_pressure;Samples;Min_cycle;Max_cycle;Signal;HPM_P1;HPM_P2
2021/10/29 00:00:12;;;;;;;5.20;4.10;;;;;;;5.75;100.00;96242.38;5263461;56;20134;-72
2021/10/29 00:05:14;;;;;;;4.80;4.30;;;;;;;5.71;100.00;96257.38;5254474;56;20218;-72
2021/10/29 00:10:17;;;;;;;3.97;3.58;;;;;;;5.68;100.00;96241.78;5263443;56;20131;-72
2021/10/29 00:15:20;;;;;;;5.72;4.88;;;;;;;5.80;100.00;96233.63;5254360;56;20251;-72
2021/10/29 00:20:23;;;;;;;3.97;3.60;;;;;;;5.73;100.00;96242.03;5263246;56;20130;-72
2021/10/29 00:25:26;;;;;;;5.93;4.75;;;;;;;5.74;100.00;96246.31;5253961;56;20138;-72
2021/10/29 00:30:28;;;;;;;5.32;4.28;;;;;;;5.59;100.00;96245.16;5254668;56;20249;-72
2021/10/29 00:35:31;;;;;;;4.90;4.30;;;;;;;5.37;99.76;96237.91;5263106;56;20116;-72
2021/10/29 00:40:35;;;;;;;7.70;4.00;;;;;;;5.40;100.00;96237.84;5254205;56;20111;-70
2021/10/29 00:45:38;;;;;;;4.40;4.00;;;;;;;5.26;100.00;96240.16;5254374;56;20753;-71
2021/10/29 00:50:41;;;;;;;5.30;3.92;;;;;;;5.15;100.00;96231.41;5254644;56;20256;-72
2021/10/29 00:55:44;;;;;;;4.70;3.78;;;;;;;5.40;100.00;96221.41;5254066;56;20134;-72
2021/10/29 01:00:47;;;;;;;4.75;3.83;;;;;;;5.26;99.83;96218.22;5245778;56;20129;-72
2021/10/29 01:05:49;;;;;;;4.90;4.30;;;;;;;4.84;100.00;96222.78;5253814;56;20688;-72
2021/10/29 01:10:52;;;;;;;4.57;3.78;;;;;;;4.84;100.00;96214.56;5245732;56;20218;-72
2021/10/29 01:15:56;;;;;;;5.57;4.30;;;;;;;5.17;100.00;96207.13;5244742;56;20129;-72
2021/10/29 01:20:58;;;;;;;5.05;4.10;;;;;;;5.24;100.00;96196.75;5263292;56;20147;-72
2021/10/29 01:26:07;;;;;;;4.15;3.72;;;;;;;5.16;100.00;96189.91;5254249;56;20146;-72
2021/10/29 01:31:10;;;;;;;4.00;3.60;;;;;;;4.84;100.00;96185.22;5263657;56;20147;-72
2021/10/29 01:36:13;;;;;;;5.45;4.40;;;;;;;4.70;100.00;96184.81;5245464;56;20691;-72
2021/10/29 01:41:15;;;;;;;6.07;5.13;;;;;;;4.13;100.00;96171.63;5263046;56;20094;-72
2021/10/29 01:46:18;;;;;;;5.60;4.95;;;;;;;4.24;100.00;96170.22;5253778;56;20133;-72
2021/10/29 01:51:20;;;;;;;8.38;4.28;;;;;;;4.53;100.00;96175.03;5254209;56;20593;-72
2021/10/29 01:56:23;;;;;;;4.72;3.70;;;;;;;4.78;100.00;96180.69;5253624;56;20673;-73
2021/10/29 02:01:26;;;;;;;6.28;3.53;;;;;;;4.91;100.00;96162.38;5254700;56;20134;-72
2021/10/29 02:06:28;;;;;;;4.35;3.83;;;;;;;5.04;100.00;96153.03;5239068;56;20120;-72
2021/10/29 02:11:31;;;;;;;6.22;3.45;;;;;;;4.99;100.00;96152.78;5252893;56;20124;-71
2021/10/29 02:16:34;;;;;;;5.15;4.03;;;;;;;4.59;100.00;96145.97;5252418;56;20142;-70
2021/10/29 02:21:37;;;;;;;3.25;3.00;;;;;;;4.70;100.00;96141.00;5261527;56;20143;-71
2021/10/29 02:26:40;;;;;;;4.85;4.20;;;;;;;4.58;100.00;96128.00;5252861;56;20181;-71
2021/10/29 02:31:43;;;;;;;4.18;3.78;;;;;;;4.43;100.00;96129.53;5256782;56;20955;-70
2021/10/29 02:36:45;;;;;;;3.72;3.40;;;;;;;4.58;100.00;96126.03;5264345;56;20651;-73
2021/10/29 02:41:48;;;;;;;3.45;2.88;;;;;;;4.76;100.00;96136.56;5255651;56;20117;-73
2021/10/29 02:46:50;;;;;;;3.90;3.38;;;;;;;4.72;99.07;96139.38;5246822;56;20134;-72
2021/10/29 02:51:52;;;;;;;3.90;3.58;;;;;;;4.31;99.60;96136.47;5247484;56;20214;-73
2021/10/29 02:56:55;;;;;;;3.90;3.55;;;;;;;4.69;100.00;96139.47;5255078;56;20177;-72
2021/10/29 03:01:57;;;;;;;8.60;3.78;;;;;;;4.72;100.00;96124.94;5255780;56;20218;-72
2021/10/29 03:07:00;;;;;;;4.95;3.78;;;;;;;4.51;99.58;96123.47;5246664;56;20640;-72
2021/10/29 03:12:03;;;;;;;3.70;3.35;;;;;;;4.62;100.00;96128.69;5264247;56;20107;-72
2021/10/29 03:17:05;;;;;;;3.75;3.38;;;;;;;4.43;99.25;96119.38;5246349;56;20702;-72
2021/10/29 03:22:08;;;;;;;4.22;3.20;;;;;;;4.12;99.74;96115.41;5246810;56;20111;-73
2021/10/29 03:27:10;;;;;;;3.10;2.83;;;;;;;3.91;100.00;96113.91;5254613;56;20129;-72
2021/10/29 03:32:13;;;;;;;3.22;2.92;;;;;;;4.21;100.00;96107.38;5246910;56;20116;-72
2021/10/29 03:42:46;;;;;;;3.20;2.90;;;;;;;3.83;99.05;96100.81;5243235;56;20120;-72
2021/10/29 03:47:55;;;;;;;2.90;2.70;;;;;;;3.89;100.00;96096.41;5254639;56;20236;-72
2021/10/29 03:53:07;;;;;;;2.55;2.35;;;;;;;3.99;100.00;96092.66;5246470;56;20116;-73
2021/10/29 03:58:09;;;;;;;3.28;2.75;;;;;;;4.05;99.16;96091.72;5263531;56;20207;-72
2021/10/29 04:03:12;;;;;;;3.22;2.92;;;;;;;4.06;99.48;96101.47;5243468;56;20370;-72
2021/10/29 04:08:14;;;;;;;2.28;2.10;;;;;;;4.06;99.34;96090.53;5263490;56;20111;-72
2021/10/29 04:13:17;;;;;;;3.13;2.67;;;;;;;4.10;98.58;96082.25;5254673;56;20550;-72
2021/10/29 04:18:21;;;;;;;5.18;3.30;;;;;;;3.26;100.00;96069.22;5245627;56;20154;-71
2021/10/29 04:23:28;;;;;;;4.20;3.10;;;;;;;3.40;100.00;96073.63;5246030;56;20150;-72
2021/10/29 04:28:30;;;;;;;2.80;2.60;;;;;;;3.59;100.00;96070.88;5253941;56;20133;-72
2021/10/29 04:33:33;;;;;;;3.05;2.75;;;;;;;3.82;100.00;96083.66;5249973;56;20216;-72
2021/10/29 04:38:35;;;;;;;3.35;3.05;;;;;;;3.85;99.58;96077.34;5245573;56;20640;-71
2021/10/29 04:43:38;;;;;;;3.33;3.03;;;;;;;3.97;99.21;96059.50;5253521;56;20641;-72
2021/10/29 04:48:41;;;;;;;3.75;3.35;;;;;;;3.49;99.86;96063.69;5262624;56;20589;-72
2021/10/29 04:53:43;;;;;;;2.15;1.95;;;;;;;3.50;98.92;96051.56;5253120;56;20247;-72
2021/10/29 04:58:46;;;;;;;1.88;1.77;;;;;;;3.39;100.00;96044.78;5253814;56;20130;-72
2021/10/29 05:03:49;;;;;;;2.67;2.45;;;;;;;3.53;99.03;96045.25;5245089;56;20132;-72
2021/10/29 05:08:51;;;;;;;2.90;2.65;;;;;;;3.21;100.00;96045.13;5262446;56;20116;-71
2021/10/29 05:13:54;;;;;;;2.40;2.20;;;;;;;3.24;99.89;96038.06;5245256;56;20757;-72
2021/10/29 05:18:57;;;;;;;3.45;2.45;;;;;;;2.92;100.00;96034.00;5244862;56;20687;-71
2021/10/29 05:24:00;;;;;;;2.45;2.35;;;;;;;3.00;100.00;96036.59;5244762;56;20125;-71
2021/10/29 05:29:02;;;;;;;4.80;3.20;;;;;;;2.74;100.00;96036.31;5253108;56;20143;-71
2021/10/29 05:34:05;;;;;;;2.25;2.08;;;;;;;3.02;100.00;96023.31;5244991;56;20146;-70
2021/10/29 05:39:08;;;;;;;3.38;2.83;;;;;;;2.97;100.00;96040.94;5253141;56;20138;-71
2021/10/29 05:44:11;;;;;;;5.75;3.15;;;;;;;3.24;100.00;96038.06;5262357;56;20138;-71
2021/10/29 05:49:15;;;;;;;2.63;2.42;;;;;;;3.18;100.00;96040.53;5243753;56;20115;-70
2021/10/29 05:59:37;;;;;;;3.10;2.90;;;;;;;3.20;100.00;96040.88;5254081;56;20230;-70
2021/10/29 06:04:39;;;;;;;2.95;2.75;;;;;;;3.30;100.00;96042.59;5238067;56;20117;-71
2021/10/29 06:09:42;;;;;;;3.28;2.97;;;;;;;3.12;100.00;96050.38;5231623;56;20231;-71
2021/10/29 06:14:45;;;;;;;2.65;2.45;;;;;;;3.22;100.00;96054.09;5242253;56;20117;-70
2021/10/29 06:19:47;;;;;;;4.00;2.97;;;;;;;3.34;100.00;96048.00;5236158;56;20649;-72
2021/10/29 06:24:51;;;;;;;2.95;2.75;;;;;;;3.46;99.97;96059.03;5241794;56;20353;-70
2021/10/29 06:29:53;;;;;;;3.60;2.90;;;;;;;3.46;100.00;96056.31;5229684;56;20647;-70
2021/10/29 06:34:57;;;;;;;2.80;2.53;;;;;;;3.27;100.00;96059.06;5227039;56;20121;-71
2021/10/29 06:39:59;;;;;;;2.33;2.13;;;;;;;3.45;100.00;96054.00;5235001;56;20121;-70
2021/10/29 07:43:13;;;;;;;5.20;4.22;;;;;;;4.36;96.71;96064.84;5263544;56;20607;-71
2021/10/29 07:48:16;;;;;;;4.03;3.63;;;;;;;4.41;97.89;96075.25;5246926;56;20120;-70
2021/10/29 07:53:18;;;;;;;3.60;2.95;;;;;;;4.87;96.83;96085.03;5254527;56;20147;-70
2021/10/29 07:58:21;;;;;;;3.80;3.42;;;;;;;5.46;93.01;96088.13;5251287;56;20164;-71
2021/10/29 08:03:23;;;;;;;4.70;4.03;;;;;;;5.32;92.27;96098.69;5256120;56;20125;-71
2021/10/29 08:08:26;;;;;;;4.93;4.03;;;;;;;5.41;92.24;96096.88;5255837;56;20130;-70
2021/10/29 08:13:29;;;;;;;4.75;4.28;;;;;;;5.71;90.98;96099.16;5245421;56;20130;-71
2021/10/29 08:18:39;;;;;;;4.63;4.05;;;;;;;5.51;91.85;96095.06;5265779;56;20235;-71
2021/10/29 08:23:42;;;;;;;3.88;3.53;;;;;;;5.85;90.69;96091.75;5242816;56;20652;-71
2021/10/29 08:28:45;;;;;;;5.95;4.50;;;;;;;5.92;90.66;96083.31;5255223;56;20129;-71
2021/10/29 08:33:48;;;;;;;4.35;3.90;;;;;;;6.00;90.55;96092.84;5250214;56;20152;-70
2021/10/29 08:38:50;;;;;;;5.47;4.40;;;;;;;5.85;91.44;96091.75;5243924;56;20308;-70
2021/10/29 08:44:05;;;;;;;4.32;3.92;;;;;;;6.47;89.40;96088.25;5253896;56;20160;-71
2021/10/29 08:49:09;;;;;;;4.57;4.07;;;;;;;6.25;89.17;96087.38;5247830;56;20217;-70
2021/10/29 08:54:11;;;;;;;4.82;4.22;;;;;;;5.95;90.29;96085.19;5246593;56;20208;-71
2021/10/29 08:59:24;;;;;;;4.47;3.72;;;;;;;6.47;89.58;96089.00;5245473;56;20636;-73
2021/10/29 09:10:16;;;;;;;5.20;3.55;;;;;;;6.54;87.38;96090.75;5249007;56;20789;-70
2021/10/29 09:31:43;;;;;;;6.57;3.83;;;;;;;6.68;85.58;96090.31;5256385;56;20678;-72
2021/10/29 09:36:50;;;;;;;5.38;3.72;;;;;;;7.03;85.28;96075.38;5244371;56;20223;-72
2021/10/29 09:42:04;;;;;;;4.70;4.22;;;;;;;6.38;89.31;96080.69;5243835;56;20642;-70
2021/10/29 09:47:08;;;;;;;5.38;4.88;;;;;;;5.85;92.56;96075.28;5244315;56;20157;-72
2021/10/29 09:57:21;;;;;;;5.40;4.10;;;;;;;7.27;88.03;96067.50;5244366;56;20649;-72
2021/10/29 10:02:26;;;;;;;4.07;3.17;;;;;;;7.77;84.53;96061.72;5239855;56;20238;-71
2021/10/29 10:07:34;;;;;;;5.30;4.20;;;;;;;8.03;83.27;96061.53;5243388;56;20121;-71
2021/10/29 10:12:40;;;;;;;5.25;4.57;;;;;;;8.13;82.65;96052.88;5256726;56;20213;-72
2021/10/29 10:17:43;;;;;;;5.07;4.57;;;;;;;8.11;82.99;96063.56;5261508;56;20137;-71
2021/10/29 10:22:49;;;;;;;5.43;4.50;;;;;;;7.58;84.50;96051.03;5268000;56;20115;-72
2021/10/29 10:49:22;;;;;;;5.82;4.60;;;;;;;7.18;87.63;96051.69;5246364;56;20778;-71
2021/10/29 10:54:36;;;;;;;5.20;4.70;;;;;;;7.19;88.49;96047.72;5263169;56;20567;-71
2021/10/29 11:05:10;;;;;;;8.85;6.20;;;;;;;6.83;92.97;96027.44;5262643;56;20231;-71
2021/10/29 11:10:24;;;;;;;8.07;6.13;;;;;;;7.08;90.30;96017.13;5253160;56;20230;-71
2021/10/29 11:15:28;;;;;;;7.25;5.15;;;;;;;7.73;88.00;96019.06;5254556;56;20597;-72
2021/10/29 11:20:51;;;;;;;5.63;4.28;;;;;;;7.42;85.94;96010.78;5255139;56;20673;-72
2021/10/29 11:26:02;;;;;;;9.70;6.00;;;;;;;6.66;90.86;95990.38;5253688;56;20162;-72
2021/10/29 11:31:11;;;;;;;7.18;4.63;;;;;;;7.74;89.22;96004.09;5248180;56;20204;-72
2021/10/29 11:36:16;;;;;;;7.67;4.70;;;;;;;8.79;81.81;95990.81;5261574;56;20660;-71
2021/10/29 11:41:27;;;;;;;6.60;5.30;;;;;;;9.20;79.12;95992.91;5263087;56;20919;-71
2021/10/29 11:46:31;;;;;;;5.93;5.10;;;;;;;9.44;78.47;95979.25;5254797;56;20112;-71
2021/10/29 11:51:35;;;;;;;8.57;6.75;;;;;;;9.23;77.41;95980.22;5252341;56;21679;-71
2021/10/29 12:07:19;;;;;;;7.10;5.85;;;;;;;10.30;75.73;95954.72;5263903;56;20125;-72
2021/10/29 12:12:28;;;;;;;7.60;5.82;;;;;;;10.15;74.98;95964.94;5257538;56;20581;-73
2021/10/29 12:17:44;;;;;;;6.63;5.18;;;;;;;10.20;75.42;95961.56;5258356;56;20125;-72
2021/10/29 12:22:50;;;;;;;9.05;6.78;;;;;;;9.38;79.74;95942.53;5254081;56;20606;-71
2021/10/29 12:28:14;;;;;;;9.25;6.13;;;;;;;10.00;76.19;95937.22;5255027;56;20671;-71
2021/10/29 12:51:51;;;;;;;10.35;6.80;;;;;;;9.03;79.94;95927.56;5260530;56;20121;-71
2021/10/29 13:05:52;;;;;;;12.25;7.47;;;;;;;9.55;78.90;95907.84;5241696;56;20572;-71
2021/10/29 13:10:58;;;;;;;9.23;6.97;;;;;;;9.20;80.36;95909.47;5232029;56;20229;-71
2021/10/29 13:16:05;;;;;;;10.65;7.80;;;;;;;9.39;80.79;95897.94;5224691;56;20121;-71
2021/10/29 13:53:51;;;;;;;11.32;8.23;;;;;;;9.53;81.49;95891.00;5251362;56;20125;-71
2021/10/29 14:31:34;;;;;;;13.57;8.77;;;;;;;7.82;91.37;95898.84;5282215;56;20225;-71
2021/10/29 14:37:28;;;;;;;10.38;6.25;;;;;;;7.74;91.64;95891.31;5264426;56;20120;-71
2021/10/29 15:45:25;;;;;;;13.43;8.20;;;;;;;7.38;94.23;95885.69;5256186;56;20223;-71
2021/10/29 15:50:33;;;;;;;13.43;9.03;;;;;;;7.19;95.22;95899.34;5248287;56;20120;-71
2021/10/29 15:55:43;;;;;;;11.60;8.13;;;;;;;7.14;96.00;95894.47;5253975;56;20624;-71
2021/10/29 16:01:01;;;;;;;12.27;8.07;;;;;;;7.38;94.90;95894.72;5245149;56;20653;-71
2021/10/29 16:22:15;;;;;;;10.57;7.30;;;;;;;7.50;93.77;95893.09;5257545;56;20148;-70
2021/10/29 16:27:18;;;;;;;11.68;7.47;;;;;;;7.36;93.93;95902.66;5252904;56;20144;-71
2021/10/29 16:32:39;;;;;;;14.13;8.57;;;;;;;7.16;94.74;95908.50;5246127;56;20120;-71
2021/10/29 16:37:42;;;;;;;11.25;8.50;;;;;;;7.03;96.56;95899.56;5245142;56;20680;-71
2021/10/29 16:42:45;;;;;;;10.90;8.13;;;;;;;6.90;97.27;95889.88;5252715;56;20684;-71
2021/10/29 16:47:48;;;;;;;13.68;9.25;;;;;;;6.58;99.95;95891.03;5249702;56;20119;-71
2021/10/29 16:52:51;;;;;;;12.23;7.72;;;;;;;6.95;98.13;95894.78;5265635;56;20233;-71
2021/10/29 16:57:54;;;;;;;11.80;7.53;;;;;;;6.94;97.65;95893.28;5230496;56;20642;-71
2021/10/29 17:02:57;;;;;;;10.75;7.60;;;;;;;6.94;97.80;95885.78;5241160;56;20134;-71
2021/10/29 17:07:59;;;;;;;12.40;7.57;;;;;;;7.18;96.52;95892.34;5266357;56;20125;-71
2021/10/29 17:13:03;;;;;;;12.40;8.25;;;;;;;7.07;96.71;95885.72;5258770;56;20134;-70
2021/10/29 17:18:06;;;;;;;16.10;10.38;;;;;;;6.71;99.24;95882.75;5264179;56;20222;-71
2021/10/29 17:23:08;;;;;;;12.82;9.15;;;;;;;6.53;100.00;95899.06;5257223;56;20436;-70
2021/10/29 17:28:11;;;;;;;12.10;8.60;;;;;;;6.80;99.31;95897.31;5258021;56;20418;-71
2021/10/29 17:33:14;;;;;;;11.68;8.02;;;;;;;6.76;99.75;95907.63;5260145;56;20129;-71
2021/10/29 17:38:16;;;;;;;15.55;8.82;;;;;;;6.57;100.00;95894.22;5261551;56;20103;-70
2021/10/29 17:43:19;;;;;;;16.60;8.82;;;;;;;6.71;99.55;95913.72;5260787;56;20691;-71
2021/10/29 17:48:21;;;;;;;11.07;7.18;;;;;;;6.82;98.81;95930.56;5244126;56;20179;-71
2021/10/29 17:53:28;;;;;;;12.50;8.25;;;;;;;6.81;99.35;95931.75;5253175;56;20123;-72
2021/10/29 17:58:31;;;;;;;12.07;7.82;;;;;;;6.90;98.41;95923.59;5244030;56;20120;-70
2021/10/29 18:03:33;;;;;;;13.00;7.32;;;;;;;6.76;98.79;95918.59;5251723;56;20120;-71
2021/10/29 18:08:42;;;;;;;8.45;6.53;;;;;;;6.65;100.00;95925.72;5251685;56;20193;-71
2021/10/29 18:13:44;;;;;;;8.60;6.80;;;;;;;6.68;99.52;95933.03;5249409;56;20224;-71
2021/10/29 18:18:47;;;;;;;13.13;7.40;;;;;;;6.26;100.00;95932.53;5252379;56;20286;-71
2021/10/29 18:23:54;;;;;;;11.68;6.75;;;;;;;6.55;100.00;95927.63;5252168;56;20120;-71
2021/10/29 18:28:58;;;;;;;10.02;7.13;;;;;;;6.65;99.80;95922.97;5245355;56;20133;-70
2021/10/29 18:34:00;;;;;;;12.18;7.03;;;;;;;6.79;99.35;95914.97;5244224;56;20120;-71
2021/10/29 18:39:04;;;;;;;14.45;8.50;;;;;;;6.83;98.94;95917.63;5267715;56;20119;-71
2021/10/29 18:44:07;;;;;;;12.90;7.22;;;;;;;6.83;98.84;95912.13;5272838;56;20128;-70
2021/10/29 18:49:09;;;;;;;11.68;7.82;;;;;;;6.87;98.86;95919.00;5272930;56;20558;-71
2021/10/29 18:54:12;;;;;;;10.65;6.65;;;;;;;6.91;98.55;95927.88;5264486;56;20238;-70
2021/10/29 18:59:14;;;;;;;19.00;9.88;;;;;;;6.62;99.49;95927.38;5264125;56;20684;-71
2021/10/29 19:04:18;;;;;;;11.00;7.75;;;;;;;6.65;100.00;95923.72;5272770;56;20133;-71
2021/10/29 19:09:20;;;;;;;12.32;8.25;;;;;;;6.59;100.00;95919.25;5273016;56;20657;-71
2021/10/29 19:14:23;;;;;;;14.10;9.55;;;;;;;6.38;100.00;95932.50;5276153;56;20116;-70
2021/10/29 19:19:26;;;;;;;13.48;8.70;;;;;;;6.25;100.00;95939.22;5276013;56;20198;-71
2021/10/29 19:24:29;;;;;;;16.75;8.95;;;;;;;5.91;100.00;95950.16;5275799;56;20238;-71
2021/10/29 19:29:31;;;;;;;12.98;8.65;;;;;;;5.80;100.00;95951.25;5285813;56;20167;-71
2021/10/29 19:34:38;;;;;;;9.98;7.25;;;;;;;5.83;100.00;95944.84;5279420;55;20690;-70
2021/10/29 19:44:47;;;;;;;12.30;7.53;;;;;;;6.20;100.00;95937.81;5280694;55;20224;-71
2021/10/29 19:49:49;;;;;;;9.27;7.32;;;;;;;6.18;100.00;95939.47;5280338;56;20578;-71
2021/10/29 19:54:58;;;;;;;11.18;6.82;;;;;;;6.46;100.00;95941.25;5289155;55;20115;-71
2021/10/29 20:00:07;;;;;;;9.45;6.63;;;;;;;6.35;100.00;95929.88;5261015;56;20129;-71
2021/10/29 20:05:10;;;;;;;6.63;5.03;;;;;;;6.40;100.00;95956.75;5257780;56;20120;-71
2021/10/29 20:10:13;;;;;;;9.13;6.63;;;;;;;6.39;100.00;95945.00;5267735;56;20121;-71
2021/10/29 20:15:16;;;;;;;13.85;8.43;;;;;;;6.43;100.00;95934.69;5266508;56;20116;-71
2021/10/29 20:20:19;;;;;;;13.25;8.55;;;;;;;5.83;100.00;95955.09;5258129;56;20121;-70
2021/10/29 20:25:21;;;;;;;11.93;7.40;;;;;;;6.02;100.00;95958.78;5264327;56;20120;-69
2021/10/29 20:30:26;;;;;;;9.40;6.80;;;;;;;5.86;100.00;95953.47;5256182;56;20252;-69
2021/10/29 20:47:11;;;;;;;7.40;5.55;;;;;;;6.27;100.00;95936.81;5224471;56;20685;-70
2021/10/29 20:52:13;;;;;;;8.45;5.75;;;;;;;6.37;100.00;95935.69;5225039;56;20587;-70
2021/10/29 20:57:17;;;;;;;9.50;6.85;;;;;;;6.37;100.00;95941.94;5224696;56;20127;-70
2021/10/29 21:02:21;;;;;;;8.18;6.05;;;;;;;6.46;100.00;95933.03;5224614;56;20653;-70
2021/10/29 21:07:24;;;;;;;6.95;5.30;;;;;;;6.30;100.00;95930.44;5224987;56;20126;-70
2021/10/29 21:12:26;;;;;;;7.35;5.53;;;;;;;6.32;100.00;95933.50;5223966;56;20650;-70
2021/10/29 21:17:29;;;;;;;7.38;5.72;;;;;;;6.33;100.00;95941.28;5225707;56;20123;-70
2021/10/29 21:22:31;;;;;;;8.82;5.53;;;;;;;6.21;100.00;95922.91;5223546;56;20126;-70
2021/10/29 21:27:34;;;;;;;8.88;6.13;;;;;;;5.92;100.00;95937.97;5224234;56;20122;-70
2021/10/29 21:32:38;;;;;;;7.28;5.60;;;;;;;5.87;100.00;95942.03;5222883;56;20122;-70
2021/10/29 21:43:39;;;;;;;6.32;4.63;;;;;;;5.97;100.00;95927.22;5241641;46;20151;-70
2021/10/29 21:48:41;;;;;;;6.13;5.13;;;;;;;5.93;100.00;95912.09;5235684;56;20662;-70
2021/10/29 21:59:21;;;;;;;4.53;3.90;;;;;;;5.68;99.83;95904.63;5609759;45;20140;-70
2021/10/29 22:15:25;;;;;;;4.40;3.80;;;;;;;5.05;100.00;95908.13;1583156;52;20157;-71
2021/10/29 22:20:28;;;;;;;5.68;4.10;;;;;;;5.27;100.00;95918.47;5244501;56;20157;-70
2021/10/29 22:25:30;;;;;;;4.43;3.85;;;;;;;5.29;100.00;95919.53;5244253;56;20140;-70
2021/10/29 22:30:34;;;;;;;4.38;3.83;;;;;;;5.31;100.00;95916.38;5244595;56;20112;-70
2021/10/29 22:35:37;;;;;;;4.63;4.05;;;;;;;5.45;100.00;95905.75;5243747;56;20104;-70
2021/10/29 22:40:39;;;;;;;4.20;3.80;;;;;;;5.23;100.00;95915.03;5244140;56;20121;-70
2021/10/29 22:45:41;;;;;;;5.15;4.32;;;;;;;5.25;100.00;95912.63;5240566;56;20126;-70
2021/10/29 22:50:44;;;;;;;4.60;3.75;;;;;;;5.35;100.00;95911.56;5240117;56;20123;-70
2021/10/29 22:55:49;;;;;;;5.40;3.80;;;;;;;5.43;100.00;95908.16;5243045;56;20175;-70
2021/10/29 23:00:52;;;;;;;5.72;4.22;;;;;;;5.14;100.00;95920.41;5243537;56;20139;-70
2021/10/29 23:05:56;;;;;;;4.30;3.75;;;;;;;5.35;100.00;95931.50;5243543;56;20122;-70
2021/10/29 23:10:58;;;;;;;6.07;4.20;;;;;;;5.06;100.00;95928.84;5243583;56;20130;-70
2021/10/29 23:16:02;;;;;;;3.90;3.42;;;;;;;5.18;100.00;95919.09;5243230;56;20132;-70
2021/10/29 23:21:04;;;;;;;4.55;4.10;;;;;;;4.76;100.00;95932.06;5243497;56;20134;-70
2021/10/29 23:26:07;;;;;;;4.43;3.92;;;;;;;4.51;100.00;95914.78;5242868;56;20152;-70
2021/10/29 23:31:09;;;;;;;3.50;3.20;;;;;;;4.70;100.00;95914.63;5243783;56;20131;-70
2021/10/29 23:36:12;;;;;;;4.07;3.67;;;;;;;4.83;100.00;95915.44;5243221;56;20113;-70
2021/10/29 23:41:14;;;;;;;5.22;4.03;;;;;;;4.65;100.00;95909.69;5242066;56;20595;-70
2021/10/29 23:46:16;;;;;;;5.53;3.08;;;;;;;4.36;100.00;95895.25;5243184;56;20112;-70
2021/10/29 23:51:19;;;;;;;4.13;3.72;;;;;;;4.42;100.00;95898.22;5243256;56;20222;-70
2021/10/29 23:56:22;;;;;;;5.22;3.30;;;;;;;4.67;100.00;95906.50;5242004;56;20121;-70
